createdAt,value
2022-12-17T00:00:36.488Z,59.9
2022-12-17T00:02:36.461Z,59.9
2022-12-17T00:04:36.409Z,59.8
2022-12-17T00:06:36.566Z,60
2022-12-17T00:08:40.762Z,60
2022-12-17T00:10:38.898Z,59.9
2022-12-17T00:16:15.741Z,59.9
2022-12-17T00:16:24.010Z,60
2022-12-17T00:18:19.685Z,60.2
2022-12-17T00:20:19.555Z,60.1
2022-12-17T00:22:19.547Z,60.2
2022-12-17T00:24:19.539Z,60
2022-12-17T00:26:19.496Z,60.1
2022-12-17T00:28:19.523Z,60.2
2022-12-17T00:30:19.521Z,60.2
2022-12-17T00:32:19.584Z,60.2
2022-12-17T00:34:19.740Z,60
2022-12-17T00:36:19.516Z,60
2022-12-17T00:38:19.523Z,60.2
2022-12-17T00:40:19.500Z,60.3
2022-12-17T00:42:19.517Z,60.1
2022-12-17T00:44:19.503Z,60
2022-12-17T00:46:19.622Z,60.2
2022-12-17T00:48:19.526Z,59.9
2022-12-17T00:50:19.560Z,60.3
2022-12-17T00:52:19.530Z,60.3
2022-12-17T00:54:19.505Z,60.1
2022-12-17T00:56:19.513Z,60.1
2022-12-17T00:58:20.594Z,60
2022-12-17T01:00:19.552Z,59.9
2022-12-17T01:02:19.690Z,59.9
2022-12-17T01:04:19.503Z,59.7
2022-12-17T01:06:19.581Z,59.9
2022-12-17T01:08:47.687Z,60
2022-12-17T01:10:19.505Z,59.9
2022-12-17T01:12:19.520Z,60.1
2022-12-17T01:14:19.528Z,60.2
2022-12-17T01:16:19.527Z,60.5
2022-12-17T01:18:19.476Z,60.7
2022-12-17T01:20:19.478Z,60.9
2022-12-17T01:22:19.479Z,61
2022-12-17T01:24:19.507Z,60.9
2022-12-17T01:26:20.611Z,61
2022-12-17T01:28:19.460Z,61.2
2022-12-17T01:30:19.472Z,61.3
2022-12-17T01:32:19.476Z,61.3
2022-12-17T01:34:19.449Z,61.1
2022-12-17T01:36:19.486Z,61.2
2022-12-17T01:38:20.806Z,61.2
2022-12-17T01:40:19.547Z,61.4
2022-12-17T01:42:19.450Z,61.5
2022-12-17T01:44:19.471Z,61.4
2022-12-17T01:46:19.534Z,61.7
2022-12-17T01:48:19.491Z,61.8
2022-12-17T01:50:19.430Z,61.9
2022-12-17T01:52:21.082Z,62
2022-12-17T01:54:19.431Z,61.9
2022-12-17T01:56:19.408Z,62.1
2022-12-17T01:58:19.573Z,62.2
2022-12-17T02:00:19.415Z,62.4
2022-12-17T02:02:19.512Z,62.5
2022-12-17T02:04:19.521Z,62.4
2022-12-17T02:06:19.425Z,62.5
2022-12-17T02:08:19.437Z,62.7
2022-12-17T02:10:19.450Z,62.9
2022-12-17T02:12:20.561Z,63
2022-12-17T02:14:19.561Z,62.9
2022-12-17T02:16:19.468Z,63
2022-12-17T02:18:19.431Z,63
2022-12-17T02:20:19.465Z,63.1
2022-12-17T02:22:19.403Z,63.2
2022-12-17T02:24:20.677Z,63.3
2022-12-17T02:26:19.393Z,63.3
2022-12-17T02:28:19.433Z,63.2
2022-12-17T02:30:19.371Z,63.3
2022-12-17T02:32:19.390Z,63.3
2022-12-17T02:34:19.392Z,63.2
2022-12-17T02:36:23.516Z,63.3
2022-12-17T02:38:19.369Z,63.4
2022-12-17T02:40:20.714Z,63.4
2022-12-17T02:42:19.402Z,63.1
2022-12-17T02:44:19.366Z,63.2
2022-12-17T02:46:19.381Z,63.2
2022-12-17T02:48:19.357Z,63.3
2022-12-17T02:50:19.365Z,63.3
2022-12-17T02:52:19.404Z,63.5
2022-12-17T02:54:19.435Z,63.4
2022-12-17T02:56:19.462Z,63.5
2022-12-17T02:58:19.344Z,63.6
2022-12-17T03:00:19.351Z,63.7
2022-12-17T03:02:19.592Z,63.9
2022-12-17T03:04:19.355Z,63.9
2022-12-17T03:06:19.388Z,64.1
2022-12-17T03:08:19.334Z,64.1
2022-12-17T03:10:19.388Z,64.2
2022-12-17T03:12:19.438Z,64.3
2022-12-17T03:14:19.364Z,64.3
2022-12-17T03:16:19.489Z,64.4
2022-12-17T03:18:19.490Z,64.4
2022-12-17T03:20:19.371Z,64.5
2022-12-17T03:22:19.351Z,64.5
2022-12-17T03:24:19.409Z,64.5
2022-12-17T03:26:19.376Z,64.5
2022-12-17T03:28:19.338Z,64.6
2022-12-17T03:30:19.405Z,64.6
2022-12-17T03:32:19.362Z,64.7
2022-12-17T03:34:19.323Z,64.7
2022-12-17T03:36:20.701Z,64.7
2022-12-17T03:38:19.289Z,64.8
2022-12-17T03:40:19.680Z,65
2022-12-17T03:42:21.889Z,65.1
2022-12-17T03:44:20.398Z,65
2022-12-17T03:46:19.407Z,65.1
2022-12-17T03:48:20.688Z,65.1
2022-12-17T03:50:19.275Z,65
2022-12-17T03:52:19.296Z,65
2022-12-17T03:54:19.282Z,64.8
2022-12-17T03:56:19.312Z,64.8
2022-12-17T03:58:19.302Z,64.8
2022-12-17T04:00:23.494Z,64.9
2022-12-17T04:02:19.465Z,65
2022-12-17T04:04:19.263Z,64.9
2022-12-17T04:06:20.822Z,64.9
2022-12-17T04:08:19.292Z,65
2022-12-17T04:10:19.265Z,65
2022-12-17T04:12:20.287Z,65
2022-12-17T04:14:19.226Z,64.9
2022-12-17T04:16:19.261Z,65
2022-12-17T04:18:20.362Z,65.2
2022-12-17T04:20:20.451Z,65.2
2022-12-17T04:22:20.592Z,65.2
2022-12-17T04:24:19.204Z,65.2
2022-12-17T04:26:19.231Z,65.1
2022-12-17T04:28:19.312Z,65.2
2022-12-17T04:30:19.311Z,65.3
2022-12-17T04:32:19.269Z,65.4
2022-12-17T04:34:19.311Z,65.3
2022-12-17T04:36:19.228Z,65.3
2022-12-17T04:38:23.339Z,65.4
2022-12-17T04:40:19.243Z,65.5
2022-12-17T04:42:19.345Z,65.5
2022-12-17T04:44:19.207Z,65.4
2022-12-17T04:46:19.268Z,65.4
2022-12-17T04:48:33.099Z,65.3
2022-12-17T04:50:21.747Z,65.3
2022-12-17T04:52:19.254Z,65.4
2022-12-17T04:54:20.508Z,65.4
2022-12-17T04:56:19.210Z,65.4
2022-12-17T04:58:19.215Z,65.6
2022-12-17T05:00:19.215Z,65.7
2022-12-17T05:02:19.306Z,65.7
2022-12-17T05:04:19.137Z,65.5
2022-12-17T05:06:19.148Z,65.6
2022-12-17T05:08:19.256Z,65.7
2022-12-17T05:10:29.724Z,65.8
2022-12-17T05:12:19.209Z,65.9
2022-12-17T05:14:19.173Z,65.6
2022-12-17T05:16:19.312Z,65.6
2022-12-17T05:18:24.930Z,65.8
2022-12-17T05:20:23.375Z,65.7
2022-12-17T05:22:19.235Z,65.9
2022-12-17T05:24:21.844Z,65.9
2022-12-17T05:26:19.188Z,65.9
2022-12-17T05:28:30.868Z,66
2022-12-17T05:30:19.192Z,66.1
2022-12-17T05:32:19.195Z,66.1
2022-12-17T05:34:21.228Z,66
2022-12-17T05:36:23.580Z,66.1
2022-12-17T05:38:22.032Z,66.3
2022-12-17T05:40:37.062Z,66.4
2022-12-17T05:42:19.206Z,66.5
2022-12-17T05:44:21.843Z,66.5
2022-12-17T05:46:20.617Z,66.5
2022-12-17T05:48:20.471Z,66.6
2022-12-17T05:50:20.722Z,66.6
2022-12-17T05:52:19.238Z,66.7
2022-12-17T05:54:19.143Z,66.6
2022-12-17T05:56:19.197Z,66.6
2022-12-17T05:58:19.196Z,66.7
2022-12-17T06:00:19.228Z,66.7
2022-12-17T06:02:19.262Z,66.8
2022-12-17T06:04:19.171Z,66.8
2022-12-17T06:06:23.494Z,66.8
2022-12-17T06:08:20.347Z,66.8
2022-12-17T06:10:19.151Z,66.9
2022-12-17T06:12:19.129Z,66.9
2022-12-17T06:14:19.071Z,66.9
2022-12-17T06:16:22.086Z,66.8
2022-12-17T06:18:19.173Z,66.8
2022-12-17T06:20:19.142Z,66.9
2022-12-17T06:22:19.150Z,66.9
2022-12-17T06:24:20.929Z,66.9
2022-12-17T06:26:20.460Z,66.9
2022-12-17T06:28:19.157Z,66.9
2022-12-17T06:30:19.284Z,67
2022-12-17T06:32:19.083Z,67
2022-12-17T06:34:19.053Z,66.9
2022-12-17T06:36:22.324Z,66.8
2022-12-17T06:38:19.048Z,66.9
2022-12-17T06:40:19.127Z,67
2022-12-17T06:42:19.016Z,67
2022-12-17T06:44:19.035Z,67
2022-12-17T06:46:19.088Z,67.1
2022-12-17T06:48:19.105Z,67.1
2022-12-17T06:50:19.011Z,67.2
2022-12-17T06:52:19.086Z,67.2
2022-12-17T06:54:20.999Z,67.2
2022-12-17T06:56:19.039Z,67.3
2022-12-17T06:58:19.080Z,67.3
2022-12-17T07:00:23.380Z,67.4
2022-12-17T07:02:24.093Z,67.4
2022-12-17T07:04:23.494Z,67.3
2022-12-17T07:06:19.037Z,67.2
2022-12-17T07:08:19.107Z,67.3
2022-12-17T07:10:19.106Z,67.4
2022-12-17T07:12:19.123Z,67.5
2022-12-17T07:14:23.257Z,67.4
2022-12-17T07:16:19.115Z,67.4
2022-12-17T07:18:19.072Z,67.3
2022-12-17T07:20:23.466Z,67.4
2022-12-17T07:22:19.024Z,67.5
2022-12-17T07:24:20.470Z,67.5
2022-12-17T07:26:07.243Z,67.5
2022-12-17T07:26:19.031Z,67.5
2022-12-17T07:28:22.004Z,67.6
2022-12-17T07:30:20.509Z,67.7
2022-12-17T07:32:19.108Z,67.8
2022-12-17T07:34:23.856Z,67.7
2022-12-17T07:36:19.018Z,67.6
2022-12-17T07:38:18.950Z,67.7
2022-12-17T07:40:18.983Z,67.8
2022-12-17T07:42:19.013Z,67.9
2022-12-17T07:44:19.023Z,67.9
2022-12-17T07:46:19.042Z,67.9
2022-12-17T07:48:19.021Z,67.9
2022-12-17T07:50:18.954Z,67.9
2022-12-17T07:52:19.299Z,68
2022-12-17T07:54:19.040Z,68
2022-12-17T07:56:19.061Z,67.9
2022-12-17T07:58:19.023Z,68.1
2022-12-17T08:00:20.265Z,68.2
2022-12-17T08:02:20.411Z,68.3
2022-12-17T08:04:26.492Z,68.3
2022-12-17T08:06:19.025Z,68.4
2022-12-17T08:08:36.750Z,68.4
2022-12-17T08:10:18.997Z,68.4
2022-12-17T08:12:18.957Z,68.5
2022-12-17T08:14:18.965Z,68.5
2022-12-17T08:16:19.034Z,68.5
2022-12-17T08:18:22.903Z,68.5
2022-12-17T08:20:29.273Z,68.6
2022-12-17T08:22:19.999Z,68.5
2022-12-17T08:24:18.955Z,68.6
2022-12-17T08:26:18.984Z,68.5
2022-12-17T08:28:48.832Z,68.6
2022-12-17T08:30:19.011Z,68.7
2022-12-17T08:32:21.495Z,68.8
2022-12-17T08:34:19.202Z,68.9
2022-12-17T08:36:21.520Z,68.7
2022-12-17T08:38:20.394Z,68.8
2022-12-17T08:40:18.912Z,68.8
2022-12-17T08:42:18.920Z,68.8
2022-12-17T08:44:19.138Z,68.8
2022-12-17T08:46:19.012Z,68.7
2022-12-17T08:48:20.234Z,68.8
2022-12-17T08:50:18.945Z,69
2022-12-17T08:52:18.942Z,69
2022-12-17T08:54:18.840Z,69.1
2022-12-17T08:56:18.908Z,69
2022-12-17T08:58:18.843Z,69.1
2022-12-17T09:00:18.907Z,69.1
2022-12-17T09:02:19.041Z,69.1
2022-12-17T09:04:18.822Z,69.3
2022-12-17T09:06:18.890Z,69.3
2022-12-17T09:08:18.963Z,69.4
2022-12-17T09:10:18.890Z,69.4
2022-12-17T09:12:18.936Z,69.4
2022-12-17T09:14:18.828Z,69.5
2022-12-17T09:16:18.887Z,69.5
2022-12-17T09:18:18.857Z,69.6
2022-12-17T09:20:19.178Z,69.6
2022-12-17T09:22:18.898Z,69.6
2022-12-17T09:24:18.885Z,69.6
2022-12-17T09:26:18.929Z,69.5
2022-12-17T09:28:18.846Z,69.6
2022-12-17T09:30:18.844Z,69.6
2022-12-17T09:32:18.841Z,69.6
2022-12-17T09:34:18.865Z,69.5
2022-12-17T09:36:18.901Z,69.4
2022-12-17T09:38:21.350Z,69.5
2022-12-17T09:40:18.867Z,69.6
2022-12-17T09:42:20.186Z,69.6
2022-12-17T09:44:18.847Z,69.6
2022-12-17T09:46:19.059Z,69.5
2022-12-17T09:48:18.833Z,69.6
2022-12-17T09:50:18.867Z,69.8
2022-12-17T09:52:18.813Z,69.8
2022-12-17T09:54:18.810Z,69.7
2022-12-17T09:56:18.815Z,69.6
2022-12-17T09:58:18.843Z,69.7
2022-12-17T10:00:18.884Z,69.7
2022-12-17T10:02:19.058Z,69.6
2022-12-17T10:04:18.757Z,69.6
2022-12-17T10:06:22.449Z,69.4
2022-12-17T10:08:18.788Z,69.4
2022-12-17T10:10:18.858Z,69.3
2022-12-17T10:12:19.822Z,69.2
2022-12-17T10:14:19.937Z,69.3
2022-12-17T10:16:18.946Z,69.1
2022-12-17T10:18:18.798Z,69.1
2022-12-17T10:20:18.817Z,69
2022-12-17T10:22:19.043Z,69
2022-12-17T10:24:18.822Z,68.9
2022-12-17T10:26:18.816Z,68.8
2022-12-17T10:28:18.735Z,68.9
2022-12-17T10:30:18.785Z,68.9
2022-12-17T10:32:18.768Z,69
2022-12-17T10:34:18.761Z,68.9
2022-12-17T10:36:18.710Z,68.9
2022-12-17T10:38:20.017Z,68.8
2022-12-17T10:40:18.763Z,68.8
2022-12-17T10:42:18.799Z,68.8
2022-12-17T10:44:18.776Z,68.8
2022-12-17T10:46:20.025Z,68.8
2022-12-17T10:48:18.745Z,68.8
2022-12-17T10:50:18.813Z,68.9
2022-12-17T10:52:18.932Z,68.8
2022-12-17T10:54:18.889Z,68.8
2022-12-17T10:56:24.946Z,68.6
2022-12-17T10:58:20.256Z,68.6
2022-12-17T11:00:21.837Z,68.6
2022-12-17T11:02:20.127Z,68.7
2022-12-17T11:04:18.784Z,68.7
2022-12-17T11:06:18.755Z,68.5
2022-12-17T11:08:18.721Z,68.4
2022-12-17T11:10:18.732Z,68.4
2022-12-17T11:12:18.677Z,68.4
2022-12-17T11:14:18.874Z,68.5
2022-12-17T11:16:20.152Z,68.4
2022-12-17T11:18:18.738Z,68.3
2022-12-17T11:20:18.733Z,68.4
2022-12-17T11:22:18.674Z,68.4
2022-12-17T11:24:22.364Z,68.4
2022-12-17T11:26:18.719Z,68.4
2022-12-17T11:28:18.705Z,68.4
2022-12-17T11:30:18.703Z,68.3
2022-12-17T11:32:18.676Z,68.4
2022-12-17T11:34:18.652Z,68.4
2022-12-17T11:36:18.688Z,68.4
2022-12-17T11:38:18.691Z,68.5
2022-12-17T11:40:18.681Z,68.5
2022-12-17T11:42:18.795Z,68.5
2022-12-17T11:44:18.687Z,68.4
2022-12-17T11:46:18.795Z,68.3
2022-12-17T11:48:18.697Z,68.4
2022-12-17T11:50:18.865Z,68.5
2022-12-17T11:52:18.780Z,68.5
2022-12-17T11:54:18.686Z,68.5
2022-12-17T11:56:18.700Z,68.5
2022-12-17T11:58:18.633Z,68.5
2022-12-17T12:00:30.762Z,68.4
2022-12-17T12:02:29.000Z,68.4
2022-12-17T12:04:21.137Z,68.4
2022-12-17T12:06:18.675Z,68.3
2022-12-17T12:08:23.134Z,68.3
2022-12-17T12:10:21.301Z,68.3
2022-12-17T12:12:18.705Z,68.2
2022-12-17T12:14:20.023Z,68.1
2022-12-17T12:15:35.694Z,68.1
2022-12-17T12:16:19.996Z,67.9
2022-12-17T12:18:19.969Z,67.9
2022-12-17T12:20:24.455Z,68
2022-12-17T12:22:19.012Z,67.9
2022-12-17T12:24:19.990Z,68
2022-12-17T12:26:18.839Z,68
2022-12-17T12:28:30.516Z,68
2022-12-17T12:30:18.612Z,68.2
2022-12-17T12:32:18.644Z,68.2
2022-12-17T12:34:18.617Z,68.1
2022-12-17T12:36:23.249Z,68
2022-12-17T12:38:19.781Z,68.1
2022-12-17T12:40:18.555Z,68
2022-12-17T12:42:47.709Z,67.9
2022-12-17T12:44:18.633Z,67.9
2022-12-17T12:46:18.672Z,68
2022-12-17T12:48:47.547Z,68.1
2022-12-17T12:50:26.007Z,67.9
2022-12-17T12:52:18.701Z,67.9
2022-12-17T12:54:20.035Z,67.9
2022-12-17T12:56:18.576Z,67.9
2022-12-17T12:58:18.600Z,67.9
2022-12-17T13:00:19.753Z,67.9
2022-12-17T13:02:19.837Z,67.9
2022-12-17T13:04:29.058Z,67.7
2022-12-17T13:06:29.072Z,67.8
2022-12-17T13:08:29.094Z,67.8
2022-12-17T13:10:22.640Z,67.7
2022-12-17T13:12:19.405Z,67.5
2022-12-17T13:14:18.673Z,67.7
2022-12-17T13:16:30.233Z,67.5
2022-12-17T13:18:30.765Z,67.6
2022-12-17T13:20:18.586Z,67.4
2022-12-17T13:22:23.904Z,67.2
2022-12-17T13:24:20.008Z,67.3
2022-12-17T13:26:20.167Z,67.4
2022-12-17T13:28:24.298Z,67.6
2022-12-17T13:30:18.656Z,67.6
2022-12-17T13:32:18.566Z,67.3
2022-12-17T13:34:20.173Z,67.3
2022-12-17T13:36:18.561Z,67.2
2022-12-17T13:38:18.626Z,67.3
2022-12-17T13:40:18.713Z,67.6
2022-12-17T13:42:21.778Z,67.5
2022-12-17T13:43:37.918Z,67.5
2022-12-17T13:44:18.615Z,67.7
2022-12-17T13:46:19.660Z,67.3
2022-12-17T13:48:18.504Z,67.4
2022-12-17T13:50:35.759Z,67.6
2022-12-17T13:52:18.558Z,67.2
2022-12-17T13:54:18.651Z,67.4
2022-12-17T13:56:18.659Z,66.6
2022-12-17T13:58:19.579Z,67.1
2022-12-17T14:00:18.928Z,66.4
2022-12-17T14:02:23.024Z,66.5
2022-12-17T14:04:18.567Z,66.7
2022-12-17T14:06:18.540Z,66.6
2022-12-17T14:08:20.092Z,66.6
2022-12-17T14:10:21.003Z,66.2
2022-12-17T14:12:18.612Z,66.3
2022-12-17T14:14:28.311Z,66.3
2022-12-17T14:14:28.319Z,66.4
2022-12-17T14:16:18.651Z,65.5
2022-12-17T14:18:21.535Z,66
2022-12-17T14:20:24.267Z,66.3
2022-12-17T14:22:18.435Z,66.2
2022-12-17T14:24:18.579Z,66.5
2022-12-17T14:25:32.469Z,66.5
2022-12-17T14:26:28.940Z,66.3
2022-12-17T14:28:18.615Z,64.8
2022-12-17T14:30:22.630Z,65.3
2022-12-17T14:32:29.040Z,65.8
2022-12-17T14:34:20.027Z,65.2
2022-12-17T14:36:21.727Z,65.4
2022-12-17T14:38:36.832Z,65.7
2022-12-17T14:40:18.500Z,65.8
2022-12-17T14:42:18.521Z,66
2022-12-17T14:43:55.121Z,66
2022-12-17T14:44:22.700Z,66
2022-12-17T14:45:50.964Z,66
2022-12-17T14:46:18.663Z,65.8
2022-12-17T14:49:04.287Z,65.3
2022-12-17T14:50:18.452Z,65
2022-12-17T14:52:29.053Z,64.8
2022-12-17T14:54:19.679Z,64.8
2022-12-17T14:56:18.546Z,64.9
2022-12-17T14:58:19.759Z,65.2
2022-12-17T15:00:29.039Z,64.7
2022-12-17T15:02:19.952Z,64.9
2022-12-17T15:04:19.660Z,64.9
2022-12-17T15:06:18.514Z,63.6
2022-12-17T15:08:18.475Z,64.1
2022-12-17T15:10:21.574Z,64
2022-12-17T15:12:18.455Z,63.5
2022-12-17T15:14:24.300Z,63.6
2022-12-17T15:16:18.581Z,63.3
2022-12-17T15:18:19.692Z,63.7
2022-12-17T15:20:18.450Z,63.6
2022-12-17T15:22:20.885Z,63.5
2022-12-17T15:24:18.509Z,63.8
2022-12-17T15:26:18.515Z,63.9
2022-12-17T15:28:18.507Z,64.2
2022-12-17T15:30:19.893Z,64.3
2022-12-17T15:32:18.520Z,64.2
2022-12-17T15:34:28.745Z,64.2
2022-12-17T15:36:20.042Z,64.1
2022-12-17T15:38:18.461Z,64
2022-12-17T15:40:19.181Z,64.1
2022-12-17T15:42:18.444Z,64
2022-12-17T15:44:18.619Z,63.9
2022-12-17T15:46:24.366Z,63.6
2022-12-17T15:48:21.398Z,63.2
2022-12-17T15:50:19.732Z,63.6
2022-12-17T15:52:23.292Z,63.3
2022-12-17T15:54:18.571Z,63.7
2022-12-17T15:55:56.520Z,63.7
2022-12-17T15:56:19.151Z,63.2
2022-12-17T15:58:28.699Z,63.5
2022-12-17T16:00:19.520Z,63.9
2022-12-17T16:02:19.758Z,63.9
2022-12-17T16:04:24.596Z,63.8
2022-12-17T16:06:28.712Z,63.6
2022-12-17T16:08:19.586Z,63.6
2022-12-17T16:10:20.349Z,63.7
2022-12-17T16:12:18.320Z,63.3
2022-12-17T16:14:33.885Z,62.3
2022-12-17T16:16:04.273Z,62.3
2022-12-17T16:18:19.788Z,62.3
2022-12-17T16:20:23.032Z,62.4
2022-12-17T16:22:22.576Z,62.5
2022-12-17T16:24:19.396Z,62.8
2022-12-17T16:26:22.824Z,62.8
2022-12-17T16:28:22.771Z,62.2
2022-12-17T16:30:28.732Z,62.3
2022-12-17T16:32:24.607Z,62.1
2022-12-17T16:32:47.644Z,62.1
2022-12-17T16:34:19.677Z,62.5
2022-12-17T16:36:21.028Z,62.4
2022-12-17T16:38:28.750Z,62.7
2022-12-17T16:40:24.474Z,62.5
2022-12-17T16:42:19.496Z,62.7
2022-12-17T16:44:21.041Z,62.8
2022-12-17T16:46:20.175Z,62.7
2022-12-17T16:48:18.463Z,62.8
2022-12-17T16:50:19.608Z,62.8
2022-12-17T16:52:18.257Z,62.7
2022-12-17T16:54:18.408Z,62.5
2022-12-17T16:54:53.814Z,62.5
2022-12-17T16:56:21.196Z,62.2
2022-12-17T16:58:18.325Z,62.3
2022-12-17T17:00:22.790Z,62.3
2022-12-17T17:02:18.637Z,62
2022-12-17T17:04:18.859Z,62.4
2022-12-17T17:06:18.372Z,61.1
2022-12-17T17:08:18.411Z,61.2
2022-12-17T17:10:19.745Z,61.2
2022-12-17T17:12:40.985Z,61.7
2022-12-17T17:14:19.499Z,61.3
2022-12-17T17:16:22.909Z,61.2
2022-12-17T17:18:21.130Z,61.5
2022-12-17T17:20:18.422Z,61.1
2022-12-17T17:22:18.614Z,60.1
2022-12-17T17:24:42.747Z,59.6
2022-12-17T17:26:23.918Z,58.8
2022-12-17T17:28:41.019Z,59.1
2022-12-17T17:30:44.146Z,58.6
2022-12-17T17:32:23.110Z,59
2022-12-17T17:34:18.360Z,59.7
2022-12-17T17:36:20.943Z,59.1
2022-12-17T17:38:19.940Z,59.4
2022-12-17T17:40:16.154Z,59.4
2022-12-17T17:40:19.428Z,59.8
2022-12-17T17:42:23.480Z,59.8
2022-12-17T17:44:33.850Z,58.8
2022-12-17T17:46:18.452Z,58.4
2022-12-17T17:48:18.285Z,58
2022-12-17T17:50:25.938Z,55.5
2022-12-17T17:52:20.770Z,56
2022-12-17T17:54:18.302Z,56.4
2022-12-17T17:56:18.303Z,55.9
2022-12-17T17:57:31.418Z,55.9
2022-12-17T17:58:19.397Z,56
2022-12-17T18:00:30.126Z,55.8
2022-12-17T18:02:19.885Z,56.4
2022-12-17T18:04:19.528Z,56.4
2022-12-17T18:06:30.748Z,56.4
2022-12-17T18:08:37.276Z,56.4
2022-12-17T18:10:19.695Z,55.5
2022-12-17T18:12:20.310Z,55.9
2022-12-17T18:14:19.540Z,56.1
2022-12-17T18:16:19.772Z,55.4
2022-12-17T18:18:27.067Z,56
2022-12-17T18:20:28.890Z,55.5
2022-12-17T18:22:44.451Z,56.3
2022-12-17T18:24:19.716Z,57
2022-12-17T18:26:24.131Z,56.7
2022-12-17T18:28:08.740Z,56.7
2022-12-17T18:30:18.242Z,56.4
2022-12-17T18:32:18.268Z,56.5
2022-12-17T18:34:18.217Z,56.5
2022-12-17T18:36:18.392Z,55.5
2022-12-17T18:38:25.864Z,56.2
2022-12-17T18:40:19.520Z,55.1
2022-12-17T18:42:18.455Z,55.8
2022-12-17T18:44:18.309Z,56.4
2022-12-17T18:46:23.134Z,56.4
2022-12-17T18:48:23.002Z,55.6
2022-12-17T18:50:47.832Z,55.8
2022-12-17T18:52:18.158Z,53.9
2022-12-17T18:54:19.781Z,53.3
2022-12-17T18:56:31.848Z,53.7
2022-12-17T18:58:19.638Z,53.3
2022-12-17T19:00:19.425Z,54.1
2022-12-17T19:02:19.563Z,53.1
2022-12-17T19:04:32.262Z,51.2
2022-12-17T19:06:18.327Z,52.9
2022-12-17T19:07:38.201Z,52.9
2022-12-17T19:08:27.360Z,53
2022-12-17T19:10:18.228Z,51.9
2022-12-17T19:12:34.977Z,51.9
2022-12-17T19:14:22.753Z,52.9
2022-12-17T19:16:19.587Z,53.5
2022-12-17T19:18:18.319Z,53.2
2022-12-17T19:20:18.124Z,52.7
2022-12-17T19:20:56.663Z,52.7
2022-12-17T19:22:19.570Z,52.5
2022-12-17T19:24:20.829Z,53
2022-12-17T19:26:19.098Z,52.5
2022-12-17T19:28:18.196Z,52.9
2022-12-17T19:29:23.162Z,52.9
2022-12-17T19:30:19.472Z,51.4
2022-12-17T19:32:19.459Z,52.1
2022-12-17T19:34:41.749Z,51.3
2022-12-17T19:36:32.410Z,51.3
2022-12-17T19:38:18.096Z,50.9
2022-12-17T19:40:20.743Z,51.9
2022-12-17T19:42:18.221Z,51.9
2022-12-17T19:44:20.034Z,50.5
2022-12-17T19:45:50.628Z,50.5
2022-12-17T19:46:18.275Z,49.8
2022-12-17T19:48:18.315Z,50.7
2022-12-17T19:50:18.100Z,51.1
2022-12-17T19:52:19.455Z,50.8
2022-12-17T19:54:20.902Z,50.9
2022-12-17T19:56:37.795Z,49.9
2022-12-17T19:57:26.442Z,49.9
2022-12-17T19:58:18.098Z,50.2
2022-12-17T20:00:19.406Z,49.2
2022-12-17T20:02:22.396Z,50.3
2022-12-17T20:04:22.444Z,50.3
2022-12-17T20:06:28.647Z,49.6
2022-12-17T20:08:22.259Z,49.9
2022-12-17T20:10:42.250Z,50
2022-12-17T20:12:18.114Z,49.1
2022-12-17T20:14:18.128Z,49.2
2022-12-17T20:16:20.731Z,49.2
2022-12-17T20:18:18.149Z,49.5
2022-12-17T20:20:21.096Z,48.4
2022-12-17T20:22:18.099Z,48.9
2022-12-17T20:24:18.162Z,48.3
2022-12-17T20:26:18.136Z,48.9
2022-12-17T20:28:20.924Z,49.5
2022-12-17T20:29:54.180Z,49.5
2022-12-17T20:30:28.541Z,49.5
2022-12-17T20:32:19.238Z,49.9
2022-12-17T20:34:19.458Z,50.2
2022-12-17T20:36:19.236Z,50.6
2022-12-17T20:38:18.251Z,50.9
2022-12-17T20:40:18.071Z,51.1
2022-12-17T20:42:52.420Z,50.9
2022-12-17T20:44:18.086Z,51.2
2022-12-17T20:46:22.153Z,51.1
2022-12-17T20:48:18.141Z,50.7
2022-12-17T20:50:18.075Z,50.9
2022-12-17T20:52:26.690Z,51.1
2022-12-17T20:54:19.389Z,51.5
2022-12-17T20:56:25.880Z,51.1
2022-12-17T20:58:24.127Z,51
2022-12-17T20:59:00.137Z,100
2022-12-17T21:00:03.775Z,100
2022-12-17T21:00:03.800Z,51
2022-12-17T21:01:22.325Z,100
2022-12-17T21:01:22.407Z,50.9
2022-12-17T21:02:18.157Z,50.2
2022-12-17T21:03:32.763Z,50.2
2022-12-17T21:03:32.781Z,100
2022-12-17T21:04:20.564Z,51.1
2022-12-17T21:04:47.628Z,100
2022-12-17T21:04:47.633Z,51.1
2022-12-17T21:05:04.026Z,100
2022-12-17T21:05:55.977Z,100
2022-12-17T21:08:18.110Z,51.1
2022-12-17T21:10:18.082Z,50.9
2022-12-17T21:12:22.561Z,51.1
2022-12-17T21:14:17.945Z,51.2
2022-12-17T21:16:24.121Z,50.7
2022-12-17T21:18:20.574Z,50.9
2022-12-17T21:20:18.042Z,51.1
2022-12-17T21:22:22.170Z,51.3
2022-12-17T21:24:22.005Z,51.4
2022-12-17T21:26:18.077Z,51.5
2022-12-17T21:28:25.043Z,51.8
2022-12-17T21:30:20.454Z,52
2022-12-17T21:32:18.058Z,52.2
2022-12-17T21:34:19.234Z,52.3
2022-12-17T21:36:17.968Z,52.4
2022-12-17T21:38:17.968Z,52.8
2022-12-17T21:40:17.914Z,53
2022-12-17T21:42:17.893Z,53.2
2022-12-17T21:44:22.223Z,53.2
2022-12-17T21:46:19.178Z,53.2
2022-12-17T21:48:17.991Z,53.3
2022-12-17T21:50:19.346Z,53.4
2022-12-17T21:52:17.966Z,53.6
2022-12-17T21:54:19.874Z,53.9
2022-12-17T21:56:19.058Z,54.2
2022-12-17T21:58:18.056Z,54.3
2022-12-17T22:00:18.181Z,54.5
2022-12-17T22:02:20.489Z,54.8
2022-12-17T22:04:45.158Z,55.1
2022-12-17T22:06:18.985Z,55.2
2022-12-17T22:08:17.982Z,55.4
2022-12-17T22:10:30.561Z,55.6
2022-12-17T22:12:17.932Z,55.7
2022-12-17T22:14:21.147Z,55.8
2022-12-17T22:16:17.870Z,55.9
2022-12-17T22:18:19.144Z,56
2022-12-17T22:20:17.838Z,56
2022-12-17T22:22:17.889Z,56.1
2022-12-17T22:24:19.231Z,56.1
2022-12-17T22:26:17.855Z,56.2
2022-12-17T22:28:18.866Z,56.3
2022-12-17T22:30:19.203Z,56.3
2022-12-17T22:32:17.980Z,56.5
2022-12-17T22:35:00.472Z,56.7
2022-12-17T22:37:22.811Z,56.8
2022-12-17T22:39:49.669Z,56.9
2022-12-17T22:41:22.703Z,57
2022-12-17T22:42:53.868Z,57.1
2022-12-17T22:44:39.871Z,57.2
2022-12-17T22:46:17.852Z,57.1
2022-12-17T22:48:17.884Z,57.3
2022-12-17T22:50:21.915Z,57.5
2022-12-17T22:52:30.032Z,57.5
2022-12-17T22:54:20.590Z,57.6
2022-12-17T22:56:19.713Z,57.5
2022-12-17T22:58:40.499Z,57.6
2022-12-17T23:00:17.833Z,57.6
2022-12-17T23:02:17.845Z,57.7
2022-12-17T23:04:18.010Z,57.8
2022-12-17T23:06:19.133Z,57.7
2022-12-17T23:08:35.567Z,57.8
2022-12-17T23:10:17.836Z,57.9
2022-12-17T23:12:20.531Z,58
2022-12-17T23:14:17.815Z,58.1
2022-12-17T23:16:18.414Z,57.9
2022-12-17T23:18:17.843Z,58
2022-12-17T23:20:17.727Z,58
2022-12-17T23:22:22.294Z,58.1
2022-12-17T23:24:17.790Z,58.2
2022-12-17T23:26:17.755Z,58.2
2022-12-17T23:28:17.781Z,58.3
2022-12-17T23:30:19.177Z,58.4
2022-12-17T23:32:17.788Z,58.5
2022-12-17T23:34:17.925Z,58.5
2022-12-17T23:36:17.845Z,58.5
2022-12-17T23:38:17.798Z,58.8
2022-12-17T23:40:22.232Z,58.9
2022-12-17T23:42:17.791Z,59
2022-12-17T23:44:17.693Z,59
2022-12-17T23:46:19.171Z,59.1
2022-12-17T23:48:17.747Z,59.2
2022-12-17T23:50:17.789Z,59.3
2022-12-17T23:52:17.739Z,59.4
2022-12-17T23:54:17.719Z,59.5
2022-12-17T23:56:19.219Z,59.6
2022-12-17T23:58:19.210Z,59.8
